Bei Facebook empfehlenBei Twitter postenGoogle plusPinterest

Das Wetter im Erzgebirge am 04.07.2015

Wetter und Klima am 04.07.2015 Holzhau im Erzgebirge (630m ü.NN)
Letzte gemessene Temperatur und Uhrzeit der Messung23:45:00 Uhr20.20 °C
Temperatur (Maximum / Höchstwert) und Uhrzeit der Messung17:30:00 Uhr33.90 °C
Temperatur (Minimum / Tiefstwert) und Uhrzeit der Messung06:00:0016.80 °C
Errechneter Absolutwert der Temperaturschwankungen zwischen Tmin und Tmax des Tages17.10 K
Errechnete Tagesmitteltemperatur25.76146 °C
Gesamt - Niederschlag des Tages (in flüssiger Form)0.00 Liter / m²
Luftdruck (Maximum / Höchstwert) und Zeitpunkt der Messung00:15:00 Uhr1024.60 hPa
Luftdruck (Minimum / Tiefstwert) und Zeitpunkt der Messung23:45:00 Uhr1020.20 hPa
Errechneter Absolutwert der Luftdruckschwankungen des Tages4.40 hPa
Höchste gemessene Windgeschwindigkeit und Uhrzeit der Messung12:00:00 Uhr16.92 km/h
Errechnete Windhäufigkeit in Relation zu den Messwerten des Tages18.75000 %
Niedrigste Windkühle (Windchill) und Zeitpunkt der Messung06:00:00 Uhr16.80 °C
Taupunkt (Maximum / Höchstwert) und Uhrzeit der Messung09:00:00 Uhr19.10 °C
Taupunkt (Minimum / Tiefstwert) und Uhrzeit der Messung05:30:0012.00 °C
Anzahl der automatisch eingelesenen Messwerte 96

Detaillierte Wetter- und Klima- Messwerte für den 04.07.2015 in Holzhau im Erzgebirge (630m ü.NN)
ZeitTemperaturLuftdruckRel. LuftfeuchteWindWindrichtungWindchillTaupunktNiederschlag l/m²
23:45:0020.20 °C1020.20 hPa71.00 %14.80 °C 
23:30:0020.10 °C1020.20 hPa72.00 %14.90 °C 
23:15:0020.30 °C1020.30 hPa71.00 %14.90 °C 
23:00:0020.40 °C1020.20 hPa71.00 %15.00 °C 
22:45:0020.90 °C1020.30 hPa69.00 %15.00 °C 
22:30:0021.30 °C1020.50 hPa68.00 %15.20 °C 
22:15:0021.80 °C1020.60 hPa67.00 %15.40 °C 
22:00:0022.40 °C1020.50 hPa65.00 %15.50 °C 
21:45:0023.10 °C1020.60 hPa63.00 %15.70 °C 
21:30:0023.80 °C1020.40 hPa61.00 %15.80 °C 
21:15:0024.80 °C1020.40 hPa59.00 %16.20 °C 
21:00:0025.90 °C1020.50 hPa55.00 %16.20 °C 
20:45:0027.20 °C1020.70 hPa52.00 %16.50 °C 
20:30:0028.10 °C1020.50 hPa50.00 %16.70 °C 
20:15:0028.80 °C1020.60 hPa47.00 %16.40 °C 
20:00:0029.40 °C1020.50 hPa46.00 %16.60 °C 
19:45:0030.00 °C1020.40 hPa44.00 %16.40 °C 
19:30:0030.50 °C1020.50 hPa44.00 %16.90 °C 
19:15:0030.90 °C1020.60 hPa43.00 %16.90 °C 
19:00:0031.20 °C1020.50 hPa43.00 %17.10 °C 
18:45:0031.80 °C1020.80 hPa41.00 %3.60 km/hSW31.80 °C16.90 °C 
18:30:0032.10 °C1020.70 hPa40.00 %16.80 °C 
18:15:0032.60 °C1020.80 hPa39.00 %9.72 km/hSW35.60 °C16.80 °C 
18:00:0032.90 °C1021.00 hPa39.00 %17.10 °C 
17:45:0033.40 °C1020.90 hPa37.00 %16.70 °C 
17:30:0033.90 °C1021.20 hPa36.00 %16.70 °C 
17:15:0033.80 °C1021.20 hPa37.00 %17.10 °C 
17:00:0033.60 °C1021.20 hPa38.00 %3.60 km/hWNW33.60 °C17.30 °C 
16:45:0033.50 °C1021.20 hPa39.00 %17.60 °C 
16:30:0033.80 °C1021.30 hPa38.00 %5.76 km/hSSW36.80 °C17.50 °C 
16:15:0033.60 °C1021.50 hPa38.00 %17.30 °C 
16:00:0033.60 °C1021.50 hPa38.00 %17.30 °C 
15:45:0033.80 °C1021.70 hPa39.00 %5.40 km/hSSW36.80 °C17.90 °C 
15:30:0033.50 °C1021.80 hPa40.00 %18.00 °C 
15:15:0033.20 °C1021.80 hPa40.00 %17.80 °C 
15:00:0032.90 °C1021.90 hPa40.00 %3.24 km/hSSW32.90 °C17.50 °C 
14:45:0032.90 °C1021.70 hPa40.00 %3.60 km/hSW32.90 °C17.50 °C 
14:30:0032.40 °C1021.80 hPa41.00 %17.50 °C 
14:15:0032.30 °C1021.90 hPa41.00 %17.40 °C 
14:00:0031.90 °C1021.90 hPa42.00 %17.40 °C 
13:45:0031.60 °C1022.00 hPa42.00 %4.32 km/hSW31.60 °C17.10 °C 
13:30:0031.60 °C1022.20 hPa43.00 %17.50 °C 
13:15:0031.40 °C1022.30 hPa43.00 %17.30 °C 
13:00:0031.40 °C1022.40 hPa43.00 %4.68 km/hSSW31.40 °C17.30 °C 
12:45:0031.40 °C1022.30 hPa41.00 %8.64 km/hSSW34.20 °C16.60 °C 
12:30:0031.50 °C1022.10 hPa41.00 %9.72 km/hSSW34.30 °C16.60 °C 
12:15:0031.60 °C1022.20 hPa42.00 %5.04 km/hSSW34.30 °C17.10 °C 
12:00:0031.60 °C1022.30 hPa41.00 %16.92 km/hSSW34.60 °C16.70 °C 
11:45:0031.60 °C1022.30 hPa42.00 %17.10 °C 
11:30:0031.20 °C1022.50 hPa42.00 %16.80 °C 
11:15:0031.20 °C1022.40 hPa43.00 %17.10 °C 
11:00:0031.10 °C1022.40 hPa42.00 %16.70 °C 
10:45:0030.90 °C1022.50 hPa42.00 %16.50 °C 
10:30:0030.90 °C1022.40 hPa44.00 %17.20 °C 
10:15:0030.80 °C1022.40 hPa45.00 %17.50 °C 
10:00:0030.50 °C1022.40 hPa45.00 %17.20 °C 
09:45:0030.30 °C1022.40 hPa46.00 %17.40 °C 
09:30:0030.10 °C1022.40 hPa48.00 %17.90 °C 
09:15:0029.40 °C1022.30 hPa53.00 %18.80 °C 
09:00:0028.40 °C1022.40 hPa57.00 %19.10 °C 
08:45:0027.60 °C1022.30 hPa58.00 %18.60 °C 
08:30:0027.10 °C1022.60 hPa58.00 %18.10 °C 
08:15:0026.60 °C1022.50 hPa59.00 %17.90 °C 
08:00:0025.80 °C1022.60 hPa61.00 %17.70 °C 
07:45:0024.50 °C1022.50 hPa64.00 %17.20 °C 
07:30:0022.40 °C1022.60 hPa69.00 %16.40 °C 
07:15:0019.60 °C1022.70 hPa75.00 %15.00 °C 
07:00:0017.90 °C1022.60 hPa76.00 %13.60 °C 
06:45:0017.30 °C1022.70 hPa75.00 %12.80 °C 
06:30:0017.10 °C1022.70 hPa75.00 %12.60 °C 
06:15:0017.00 °C1022.70 hPa75.00 %12.50 °C 
06:00:0016.80 °C1022.70 hPa74.00 %12.10 °C 
05:45:0016.90 °C1022.80 hPa74.00 %12.20 °C 
05:30:0017.10 °C1022.90 hPa72.00 %12.00 °C 
05:15:0017.60 °C1022.80 hPa71.00 %12.30 °C 
05:00:0017.90 °C1022.80 hPa70.00 %12.40 °C 
04:45:0018.00 °C1022.70 hPa70.00 %12.50 °C 
04:30:0018.10 °C1022.80 hPa70.00 %12.50 °C 
04:15:0017.90 °C1022.90 hPa70.00 %12.40 °C 
04:00:0018.00 °C1023.10 hPa70.00 %12.50 °C 
03:45:0018.10 °C1023.30 hPa70.00 %6.48 km/hOSO18.70 °C12.50 °C 
03:30:0018.10 °C1023.40 hPa70.00 %12.50 °C 
03:15:0018.20 °C1023.40 hPa70.00 %12.60 °C 
03:00:0018.10 °C1023.60 hPa71.00 %5.76 km/hSO18.80 °C12.80 °C 
02:45:0018.10 °C1023.70 hPa72.00 %13.00 °C 
02:30:0017.90 °C1023.80 hPa73.00 %13.00 °C 
02:15:0017.80 °C1023.80 hPa74.00 %5.40 km/hSSO18.50 °C13.10 °C 
02:00:0017.80 °C1023.90 hPa74.00 %6.48 km/hSO18.40 °C13.10 °C 
01:45:0017.80 °C1024.00 hPa75.00 %13.30 °C 
01:30:0018.10 °C1023.90 hPa74.00 %13.40 °C 
01:15:0018.40 °C1024.10 hPa74.00 %13.70 °C 
01:00:0018.50 °C1024.00 hPa74.00 %13.80 °C 
00:45:0018.50 °C1024.00 hPa75.00 %2.88 km/hSO18.50 °C14.00 °C 
00:30:0018.40 °C1024.20 hPa75.00 %13.90 °C 
00:15:0018.40 °C1024.60 hPa76.00 %14.10 °C 
00:00:0018.60 °C1024.60 hPa75.00 %14.10 °C 

Permanenter Link zu dieser Seite: Wetter im Erzgebirge am 04.07.2015
Performance-Info: Die Erstellung der Seite / Statistik(en) / Tabelle(n) erforderte 5 Datenbankserver-Abfrage(n) und dauerte 100 Millisekunden. (Dieser Messwert ist von der Gesamt-Auslastung des Servers abhängig.)
Erzgebirge - Wetter | Erzgebirge - Wetter (Mobilgeräte) | Komplette Klimadatenbank